createdAt,value
2022-11-03T00:01:05.482Z,87.77
2022-11-03T00:04:12.052Z,88.06
2022-11-03T00:07:20.579Z,88.00
2022-11-03T00:10:23.432Z,87.31
2022-11-03T00:13:25.990Z,86.59
2022-11-03T00:16:29.222Z,85.80
2022-11-03T00:19:32.881Z,85.92
2022-11-03T00:22:37.030Z,85.98
2022-11-03T00:25:39.598Z,87.59
2022-11-03T00:28:44.900Z,87.84
2022-11-03T00:31:47.460Z,87.35
2022-11-03T00:34:50.609Z,87.11
2022-11-03T00:37:53.217Z,88.10
2022-11-03T00:41:01.364Z,87.61
2022-11-03T00:44:04.656Z,87.21
2022-11-03T00:47:07.632Z,87.55
2022-11-03T00:50:10.160Z,88.11
2022-11-03T00:53:13.014Z,89.03
2022-11-03T00:56:18.119Z,88.92
2022-11-03T00:59:21.920Z,88.70
2022-11-03T01:02:24.558Z,88.21
2022-11-03T01:05:45.984Z,88.32
2022-11-03T01:08:48.559Z,88.00
2022-11-03T01:12:13.090Z,87.55
2022-11-03T01:15:15.879Z,88.01
2022-11-03T01:18:18.791Z,87.34
2022-11-03T01:21:21.437Z,87.49
2022-11-03T01:24:24.442Z,87.62
2022-11-03T01:27:26.920Z,87.68
2022-11-03T01:30:30.051Z,87.83
2022-11-03T01:33:33.370Z,88.68
2022-11-03T01:36:36.299Z,89.29
2022-11-03T01:39:38.812Z,89.05
2022-11-03T01:42:41.743Z,88.50
2022-11-03T01:45:45.471Z,87.55
2022-11-03T01:49:11.649Z,88.38
2022-11-03T01:52:20.289Z,88.90
2022-11-03T01:55:28.746Z,88.32
2022-11-03T01:58:36.493Z,88.90
2022-11-03T02:01:39.823Z,88.26
2022-11-03T02:04:43.840Z,88.27
2022-11-03T02:11:35.281Z,90.66
2022-11-03T02:14:49.871Z,91.78
2022-11-03T02:17:55.722Z,92.13
2022-11-03T02:21:12.176Z,91.84
2022-11-03T02:24:43.307Z,90.87
2022-11-03T02:27:46.350Z,91.42
2022-11-03T02:31:24.429Z,90.95
2022-11-03T02:34:34.606Z,90.49
2022-11-03T02:37:42.533Z,89.82
2022-11-03T02:40:52.054Z,89.20
2022-11-03T02:43:57.243Z,88.34
2022-11-03T02:47:03.999Z,88.85
2022-11-03T02:50:10.719Z,88.74
2022-11-03T02:53:14.592Z,88.46
2022-11-03T02:56:24.960Z,88.29
2022-11-03T02:59:32.199Z,88.89
2022-11-03T03:03:08.176Z,90.47
2022-11-03T03:06:19.447Z,90.22
2022-11-03T03:09:29.537Z,90.66
2022-11-03T03:12:35.660Z,89.71
2022-11-03T03:15:46.562Z,89.81
2022-11-03T03:19:04.690Z,90.19
2022-11-03T03:22:35.144Z,90.01
2022-11-03T03:25:40.986Z,91.22
2022-11-03T03:28:52.594Z,90.85
2022-11-03T03:31:59.064Z,91.75
2022-11-03T03:35:03.616Z,92.62
2022-11-03T03:38:11.172Z,91.86
2022-11-03T03:41:22.274Z,91.73
2022-11-03T03:44:26.185Z,92.06
2022-11-03T03:47:31.262Z,91.03
2022-11-03T03:50:38.783Z,90.81
2022-11-03T03:53:42.537Z,89.11
2022-11-03T03:56:54.545Z,90.53
2022-11-03T03:59:57.446Z,90.09
2022-11-03T04:03:00.365Z,89.79
2022-11-03T04:06:03.889Z,89.46
2022-11-03T04:09:07.425Z,88.99
2022-11-03T04:12:29.121Z,89.64
2022-11-03T04:15:51.112Z,89.71
2022-11-03T04:19:12.747Z,89.20
2022-11-03T04:22:18.240Z,90.73
2022-11-03T04:25:21.181Z,90.03
2022-11-03T04:28:25.928Z,89.67
2022-11-03T04:31:31.952Z,90.31
2022-11-03T04:34:34.588Z,89.93
2022-11-03T04:37:38.256Z,90.38
2022-11-03T04:40:44.602Z,89.61
2022-11-03T04:43:47.808Z,89.91
2022-11-03T04:46:50.432Z,90.80
2022-11-03T04:49:53.356Z,90.83
2022-11-03T04:52:59.425Z,90.89
2022-11-03T04:56:07.222Z,91.83
2022-11-03T04:59:14.512Z,95.03
2022-11-03T05:02:20.401Z,94.15
2022-11-03T05:05:26.294Z,92.81
2022-11-03T05:08:29.716Z,93.22
2022-11-03T05:11:39.308Z,93.15
2022-11-03T05:14:42.300Z,93.40
2022-11-03T05:17:44.860Z,92.15
2022-11-03T05:20:56.835Z,93.35
2022-11-03T05:24:03.658Z,93.34
2022-11-03T05:27:16.785Z,92.96
2022-11-03T05:30:19.406Z,92.53
2022-11-03T05:33:28.628Z,91.80
2022-11-03T05:36:33.883Z,92.31
2022-11-03T05:39:40.742Z,91.99
2022-11-03T05:42:46.881Z,91.24
2022-11-03T05:45:58.146Z,90.96
2022-11-03T05:49:07.691Z,91.24
2022-11-03T05:52:23.271Z,91.18
2022-11-03T05:55:35.017Z,91.25
2022-11-03T05:58:39.763Z,91.54
2022-11-03T06:01:42.518Z,91.82
2022-11-03T06:04:45.447Z,91.91
2022-11-03T06:07:50.122Z,92.31
2022-11-03T06:10:55.725Z,92.73
2022-11-03T06:13:59.626Z,93.26
2022-11-03T06:17:08.593Z,92.87
2022-11-03T06:20:19.152Z,93.24
2022-11-03T06:23:23.120Z,93.62
2022-11-03T06:26:28.843Z,93.09
2022-11-03T06:29:33.658Z,93.18
2022-11-03T06:32:36.684Z,93.10
2022-11-03T06:35:39.945Z,92.86
2022-11-03T06:38:43.447Z,92.58
2022-11-03T06:41:47.439Z,93.27
2022-11-03T06:44:51.764Z,93.28
2022-11-03T06:47:55.373Z,93.95
2022-11-03T06:51:00.094Z,93.96
2022-11-03T06:54:09.809Z,93.69
2022-11-03T06:57:14.874Z,93.82
2022-11-03T07:00:37.022Z,93.42
2022-11-03T07:03:42.590Z,93.29
2022-11-03T07:06:52.807Z,93.42
2022-11-03T07:09:56.025Z,93.17
2022-11-03T07:13:12.306Z,92.77
2022-11-03T07:16:43.031Z,92.79
2022-11-03T07:19:46.216Z,92.78
2022-11-03T07:22:50.160Z,92.37
2022-11-03T07:26:02.906Z,91.62
2022-11-03T07:29:23.174Z,91.04
2022-11-03T07:32:33.505Z,91.00
2022-11-03T07:39:21.526Z,91.39
2022-11-03T07:42:26.413Z,91.28
2022-11-03T07:45:45.358Z,90.54
2022-11-03T07:48:50.360Z,90.33
2022-11-03T07:51:54.698Z,90.59
2022-11-03T07:54:57.422Z,90.07
2022-11-03T07:58:00.351Z,89.71
2022-11-03T08:01:16.702Z,88.82
2022-11-03T08:04:26.074Z,89.20
2022-11-03T08:07:29.087Z,88.73
2022-11-03T08:10:32.705Z,87.48
2022-11-03T08:13:35.760Z,86.30
2022-11-03T08:16:38.946Z,85.94
2022-11-03T08:19:42.115Z,86.26
2022-11-03T08:22:59.088Z,85.01
2022-11-03T08:26:07.712Z,83.71
2022-11-03T08:29:10.726Z,84.32
2022-11-03T08:32:14.246Z,84.72
2022-11-03T08:35:17.326Z,79.61
2022-11-03T08:38:19.882Z,75.48
2022-11-03T08:41:22.833Z,69.21
2022-11-03T08:44:25.456Z,63.04
2022-11-03T08:47:28.275Z,64.43
2022-11-03T08:50:30.896Z,53.55
2022-11-03T08:53:34.714Z,56.03
2022-11-03T08:56:37.241Z,53.37
2022-11-03T08:59:40.170Z,56.25
2022-11-03T09:02:43.877Z,51.73
2022-11-03T09:05:47.133Z,49.67
2022-11-03T09:12:12.709Z,46.85
2022-11-03T09:15:15.507Z,47.10
2022-11-03T09:18:18.377Z,49.48
2022-11-03T09:21:20.971Z,47.77
2022-11-03T09:24:23.776Z,48.35
2022-11-03T09:27:26.419Z,48.58
2022-11-03T09:30:29.502Z,49.19
2022-11-03T09:33:32.062Z,50.78
2022-11-03T09:36:35.116Z,50.35
2022-11-03T09:39:37.817Z,49.88
2022-11-03T09:42:41.502Z,48.74
2022-11-03T09:45:44.772Z,51.12
2022-11-03T09:48:47.930Z,50.29
2022-11-03T09:51:50.558Z,49.14
2022-11-03T09:54:58.078Z,48.07
2022-11-03T09:58:09.584Z,49.81
2022-11-03T10:01:13.545Z,49.64
2022-11-03T10:04:21.530Z,49.30
2022-11-03T10:07:27.323Z,48.01
2022-11-03T10:10:31.067Z,47.75
2022-11-03T10:13:39.144Z,49.64
2022-11-03T10:16:43.123Z,45.90
2022-11-03T10:19:49.601Z,44.10
2022-11-03T10:22:54.659Z,44.97
2022-11-03T10:26:10.210Z,45.67
2022-11-03T10:32:30.954Z,45.86
2022-11-03T10:35:36.966Z,45.82
2022-11-03T10:38:39.570Z,46.37
2022-11-03T10:41:57.587Z,47.70
2022-11-03T10:45:20.160Z,49.25
2022-11-03T10:48:25.178Z,50.02
2022-11-03T10:51:29.229Z,50.02
2022-11-03T10:54:35.702Z,49.13
2022-11-03T10:57:38.593Z,49.04
2022-11-03T11:00:42.948Z,51.49
2022-11-03T11:03:45.950Z,48.60
2022-11-03T11:06:49.620Z,48.30
2022-11-03T11:09:54.475Z,49.68
2022-11-03T11:13:15.755Z,47.88
2022-11-03T11:16:54.370Z,47.14
2022-11-03T11:20:31.031Z,45.60
2022-11-03T11:23:33.615Z,48.17
2022-11-03T11:26:37.939Z,47.58
2022-11-03T11:29:40.509Z,50.49
2022-11-03T11:32:46.163Z,49.97
2022-11-03T11:35:48.675Z,49.14
2022-11-03T11:38:55.851Z,48.70
2022-11-03T11:42:14.770Z,49.35
2022-11-03T11:45:56.260Z,49.24
2022-11-03T11:49:04.548Z,51.87
2022-11-03T11:52:15.217Z,51.78
2022-11-03T11:55:42.594Z,52.06
2022-11-03T11:58:53.033Z,51.81
2022-11-03T12:01:57.268Z,52.39
2022-11-03T12:05:04.905Z,54.70
2022-11-03T12:08:21.422Z,57.22
2022-11-03T12:11:55.344Z,57.72
2022-11-03T12:14:58.811Z,56.68
2022-11-03T12:18:40.659Z,54.04
2022-11-03T12:21:46.722Z,55.97
2022-11-03T12:24:55.785Z,55.74
2022-11-03T12:27:58.456Z,55.14
2022-11-03T12:31:02.110Z,54.76
2022-11-03T12:34:04.984Z,54.05
2022-11-03T12:37:08.572Z,55.83
2022-11-03T12:40:13.973Z,57.15
2022-11-03T12:43:17.137Z,57.03
2022-11-03T12:46:21.491Z,54.84
2022-11-03T12:49:24.546Z,52.85
2022-11-03T12:52:27.122Z,51.25
2022-11-03T12:55:30.373Z,51.55
2022-11-03T12:58:33.219Z,51.69
2022-11-03T13:01:36.307Z,51.55
2022-11-03T13:04:39.241Z,52.97
2022-11-03T13:07:43.370Z,54.42
2022-11-03T13:10:46.022Z,55.42
2022-11-03T13:13:48.991Z,55.88
2022-11-03T13:16:51.781Z,56.29
2022-11-03T13:19:54.929Z,57.70
2022-11-03T13:22:57.497Z,57.97
2022-11-03T13:26:00.591Z,59.96
2022-11-03T13:29:03.864Z,62.73
2022-11-03T13:32:08.491Z,64.95
2022-11-03T13:35:13.933Z,67.02
2022-11-03T13:38:18.538Z,67.84
2022-11-03T13:41:21.093Z,69.41
2022-11-03T13:44:26.612Z,69.96
2022-11-03T13:47:41.939Z,71.07
2022-11-03T13:50:53.323Z,72.55
2022-11-03T14:00:43.292Z,74.79
2022-11-03T14:07:08.918Z,76.44
2022-11-03T14:10:11.852Z,76.53
2022-11-03T14:13:14.372Z,78.37
2022-11-03T14:16:17.453Z,79.11
2022-11-03T14:19:20.259Z,79.99
2022-11-03T14:22:24.142Z,80.51
2022-11-03T14:25:27.116Z,80.95
2022-11-03T14:28:30.067Z,80.93
2022-11-03T14:31:33.913Z,81.74
2022-11-03T14:34:38.005Z,81.93
2022-11-03T14:37:40.791Z,81.94
2022-11-03T14:41:02.821Z,82.35
2022-11-03T14:44:07.247Z,82.01
2022-11-03T14:47:15.798Z,81.20
2022-11-03T14:50:18.294Z,81.76
2022-11-03T14:53:21.459Z,81.70
2022-11-03T14:56:24.728Z,81.96
2022-11-03T14:59:28.236Z,81.76
2022-11-03T15:02:30.795Z,82.21
2022-11-03T15:05:46.074Z,82.48
2022-11-03T15:08:53.448Z,82.01
2022-11-03T15:11:59.007Z,82.80
2022-11-03T15:15:01.610Z,82.94
2022-11-03T15:18:04.740Z,83.02
2022-11-03T15:21:07.463Z,83.07
2022-11-03T15:27:32.932Z,84.25
2022-11-03T15:30:35.842Z,85.23
2022-11-03T15:33:38.447Z,85.68
2022-11-03T15:36:41.337Z,85.70
2022-11-03T15:39:43.925Z,86.48
2022-11-03T15:42:46.874Z,86.30
2022-11-03T15:45:49.395Z,86.26
2022-11-03T15:48:54.813Z,86.91
2022-11-03T15:51:57.520Z,88.11
2022-11-03T15:55:00.430Z,87.98
2022-11-03T15:58:04.576Z,87.45
2022-11-03T16:01:07.975Z,87.75
2022-11-03T16:04:13.436Z,87.90
2022-11-03T16:07:16.018Z,87.67
2022-11-03T16:10:18.832Z,87.53
2022-11-03T16:13:21.566Z,87.39
2022-11-03T16:16:24.469Z,86.96
2022-11-03T16:19:27.094Z,87.62
2022-11-03T16:22:30.999Z,87.71
2022-11-03T16:25:34.707Z,87.97
2022-11-03T16:28:37.855Z,88.33
2022-11-03T16:31:40.685Z,88.48
2022-11-03T16:34:44.953Z,88.16
2022-11-03T16:37:49.533Z,88.37
2022-11-03T16:40:53.223Z,88.43
2022-11-03T16:43:56.205Z,88.33
2022-11-03T16:46:59.148Z,88.28
2022-11-03T16:50:01.739Z,87.97
2022-11-03T16:53:06.034Z,87.38
2022-11-03T16:56:10.251Z,87.99
2022-11-03T16:59:13.299Z,87.41
2022-11-03T17:02:18.473Z,87.22
2022-11-03T17:05:22.086Z,86.89
2022-11-03T17:08:51.294Z,86.70
2022-11-03T17:11:48.899Z,87.02
2022-11-03T17:14:55.630Z,86.53
2022-11-03T17:18:00.408Z,86.32
2022-11-03T17:21:03.054Z,86.43
2022-11-03T17:24:06.912Z,85.99
2022-11-03T17:27:15.743Z,86.49
2022-11-03T17:30:31.514Z,86.32
2022-11-03T17:33:35.315Z,86.36
2022-11-03T17:36:38.379Z,86.40
2022-11-03T17:39:41.647Z,86.35
2022-11-03T17:42:45.049Z,86.79
2022-11-03T17:45:47.709Z,86.04
2022-11-03T17:48:50.599Z,85.98
2022-11-03T17:51:55.157Z,85.81
2022-11-03T17:55:01.263Z,85.64
2022-11-03T17:58:06.433Z,85.64
2022-11-03T18:01:11.088Z,85.21
2022-11-03T18:04:18.150Z,85.54
2022-11-03T18:07:24.840Z,86.19
2022-11-03T18:10:33.605Z,86.06
2022-11-03T18:13:37.501Z,86.88
2022-11-03T18:16:41.476Z,88.01
2022-11-03T18:19:45.564Z,88.01
2022-11-03T18:22:49.379Z,87.29
2022-11-03T18:25:54.773Z,87.85
2022-11-03T18:28:58.268Z,88.29
2022-11-03T18:32:03.945Z,88.38
2022-11-03T18:35:11.625Z,87.98
2022-11-03T18:38:15.881Z,88.86
2022-11-03T18:41:38.648Z,89.05
2022-11-03T18:44:46.907Z,88.43
2022-11-03T18:47:49.931Z,88.66
2022-11-03T18:50:56.854Z,88.81
2022-11-03T18:54:00.412Z,88.28
2022-11-03T18:57:04.029Z,88.69
2022-11-03T19:00:19.521Z,89.38
2022-11-03T19:03:23.845Z,89.51
2022-11-03T19:06:27.224Z,90.19
2022-11-03T19:09:30.814Z,89.32
2022-11-03T19:12:38.796Z,89.26
2022-11-03T19:15:43.286Z,89.73
2022-11-03T19:18:47.077Z,89.57
2022-11-03T19:21:53.756Z,88.99
2022-11-03T19:24:57.182Z,89.08
2022-11-03T19:28:00.979Z,88.49
2022-11-03T19:31:04.545Z,88.32
2022-11-03T19:34:13.631Z,87.54
2022-11-03T19:37:18.146Z,87.32
2022-11-03T19:40:21.305Z,87.04
2022-11-03T19:43:24.630Z,86.93
2022-11-03T19:46:28.315Z,86.33
2022-11-03T19:49:31.636Z,86.21
2022-11-03T19:52:35.880Z,86.17
2022-11-03T19:55:42.672Z,86.17
2022-11-03T19:58:46.733Z,86.19
2022-11-03T20:01:50.730Z,86.22
2022-11-03T20:04:55.323Z,86.52
2022-11-03T20:08:04.596Z,86.25
2022-11-03T20:11:08.822Z,86.24
2022-11-03T20:14:18.397Z,86.36
2022-11-03T20:17:23.374Z,86.12
2022-11-03T20:20:31.067Z,86.23
2022-11-03T20:23:35.976Z,86.09
2022-11-03T20:26:39.135Z,85.84
2022-11-03T20:29:42.984Z,86.14
2022-11-03T20:32:48.558Z,85.90
2022-11-03T20:35:53.973Z,85.86
2022-11-03T20:38:59.805Z,85.77
2022-11-03T20:42:04.453Z,85.71
2022-11-03T20:45:16.591Z,85.83
2022-11-03T20:48:19.859Z,85.55
2022-11-03T20:51:26.459Z,85.62
2022-11-03T20:54:30.663Z,85.62
2022-11-03T20:57:33.285Z,85.48
2022-11-03T21:00:36.645Z,85.45
2022-11-03T21:07:04.302Z,85.33
2022-11-03T21:10:07.475Z,85.57
2022-11-03T21:13:17.925Z,85.48
2022-11-03T21:16:41.106Z,85.74
2022-11-03T21:19:59.433Z,85.68
2022-11-03T21:23:06.527Z,85.47
2022-11-03T21:26:12.705Z,85.59
2022-11-03T21:29:27.495Z,85.43
2022-11-03T21:32:38.229Z,85.40
2022-11-03T21:35:42.674Z,85.57
2022-11-03T21:38:45.794Z,85.74
2022-11-03T21:42:07.351Z,85.51
2022-11-03T21:45:10.808Z,85.47
2022-11-03T21:48:32.461Z,85.50
2022-11-03T21:51:35.391Z,85.67
2022-11-03T21:54:39.418Z,85.46
2022-11-03T21:57:42.248Z,85.38
2022-11-03T22:00:47.361Z,85.48
2022-11-03T22:03:51.390Z,85.58
2022-11-03T22:06:56.215Z,85.61
2022-11-03T22:09:59.126Z,85.51
2022-11-03T22:13:01.650Z,85.69
2022-11-03T22:16:23.636Z,85.83
2022-11-03T22:19:45.041Z,85.50
2022-11-03T22:23:06.765Z,85.61
2022-11-03T22:26:31.601Z,85.67
2022-11-03T22:29:53.299Z,85.92
2022-11-03T22:32:58.077Z,85.66
2022-11-03T22:36:21.900Z,85.77
2022-11-03T22:39:44.842Z,85.88
2022-11-03T22:43:06.641Z,86.43
2022-11-03T22:46:11.255Z,86.19
2022-11-03T22:49:14.180Z,86.46
2022-11-03T22:52:16.790Z,86.38
2022-11-03T22:55:19.775Z,86.62
2022-11-03T22:58:25.318Z,86.89
2022-11-03T23:01:32.167Z,86.75
2022-11-03T23:04:37.372Z,87.17
2022-11-03T23:07:41.770Z,86.85
2022-11-03T23:10:44.534Z,87.30
2022-11-03T23:13:53.313Z,86.95
2022-11-03T23:16:55.895Z,87.24
2022-11-03T23:20:17.166Z,86.99
2022-11-03T23:23:39.417Z,87.09
2022-11-03T23:26:43.036Z,87.16
2022-11-03T23:29:45.603Z,87.14
2022-11-03T23:32:48.771Z,87.20
2022-11-03T23:35:51.453Z,86.95
2022-11-03T23:38:58.515Z,87.04
2022-11-03T23:42:01.207Z,87.01
2022-11-03T23:45:22.960Z,86.96
2022-11-03T23:48:44.229Z,86.60
2022-11-03T23:51:47.166Z,86.72
2022-11-03T23:54:49.792Z,86.68
2022-11-03T23:58:11.219Z,86.53
